createdAt,value
2022-10-19T00:04:26.267Z,68
2022-10-19T00:14:26.341Z,68
2022-10-19T00:24:26.245Z,68
2022-10-19T00:34:26.329Z,68
2022-10-19T00:44:26.290Z,68
2022-10-19T00:54:26.329Z,68.5
2022-10-19T01:04:26.235Z,68.5
2022-10-19T01:14:26.307Z,68.5
2022-10-19T01:24:26.233Z,68.5
2022-10-19T01:34:26.332Z,68.5
2022-10-19T01:44:26.460Z,68.5
2022-10-19T01:54:26.319Z,68.5
2022-10-19T02:04:26.442Z,68.5
2022-10-19T02:14:26.311Z,68.5
2022-10-19T02:24:26.461Z,68.5
2022-10-19T02:34:26.311Z,68.5
2022-10-19T02:44:26.435Z,68.5
2022-10-19T02:54:26.511Z,68
2022-10-19T03:04:26.419Z,68
2022-10-19T03:14:26.480Z,68
2022-10-19T03:24:26.418Z,68
2022-10-19T03:34:26.510Z,68
2022-10-19T03:44:26.399Z,68
2022-10-19T03:54:27.298Z,68
2022-10-19T04:04:26.414Z,68
2022-10-19T04:14:31.667Z,68.5
2022-10-19T04:24:26.614Z,68.5
2022-10-19T04:34:26.468Z,68.5
2022-10-19T04:44:26.585Z,68.5
2022-10-19T04:54:26.460Z,68.5
2022-10-19T05:04:26.583Z,67.5
2022-10-19T05:24:26.592Z,58.5
2022-10-19T05:34:26.663Z,61
2022-10-19T05:44:26.596Z,62.5
2022-10-19T05:54:28.371Z,64
2022-10-19T06:04:26.590Z,65
2022-10-19T06:14:26.668Z,66
2022-10-19T06:24:26.563Z,58
2022-10-19T06:34:26.664Z,55.5
2022-10-19T06:44:26.561Z,58.5
2022-10-19T06:54:26.636Z,60.5
2022-10-19T07:04:26.785Z,63
2022-10-19T07:14:26.626Z,64
2022-10-19T07:24:26.764Z,65
2022-10-19T07:34:28.175Z,66
2022-10-19T07:44:26.797Z,56.5
2022-10-19T07:54:26.642Z,56
2022-10-19T08:14:26.674Z,61.5
2022-10-19T08:24:27.007Z,63.5
2022-10-19T08:34:26.668Z,65
2022-10-19T08:44:26.788Z,66
2022-10-19T08:54:26.656Z,67
2022-10-19T09:04:26.799Z,68.5
2022-10-19T09:14:26.855Z,68.5
2022-10-19T09:24:26.805Z,68
2022-10-19T09:34:26.842Z,67.5
2022-10-19T09:44:26.774Z,67.5
2022-10-19T09:54:26.840Z,68
2022-10-19T10:04:26.803Z,67.5
2022-10-19T10:14:26.877Z,66.5
2022-10-19T10:24:26.781Z,65
2022-10-19T10:34:37.410Z,65
2022-10-19T10:44:27.001Z,65
2022-10-19T10:54:26.891Z,65.5
2022-10-19T11:04:27.031Z,64.5
2022-10-19T11:14:26.875Z,64.5
2022-10-19T11:24:27.050Z,65
2022-10-19T11:34:26.893Z,65
2022-10-19T11:44:27.035Z,64.5
2022-10-19T11:54:26.896Z,64.5
2022-10-19T12:04:27.014Z,62
2022-10-19T12:14:26.910Z,63
2022-10-19T12:24:27.074Z,61
2022-10-19T12:34:26.919Z,61
2022-10-19T12:44:27.120Z,61.5
2022-10-19T12:54:26.960Z,62
2022-10-19T13:04:27.108Z,62
2022-10-19T13:14:27.178Z,56
2022-10-19T13:24:27.196Z,53
2022-10-19T13:34:27.177Z,52.5
2022-10-19T13:44:27.201Z,51.5
2022-10-19T13:54:27.160Z,51
2022-10-19T14:04:27.097Z,53.5
2022-10-19T14:14:27.152Z,57
2022-10-19T14:24:27.084Z,57
2022-10-19T14:34:27.111Z,58.5
2022-10-19T14:44:27.245Z,60
2022-10-19T14:54:27.124Z,60.5
2022-10-19T15:04:27.226Z,60.5
2022-10-19T15:14:27.085Z,59
2022-10-19T15:24:27.247Z,59
2022-10-19T15:34:27.132Z,59
2022-10-19T15:44:27.276Z,60
2022-10-19T15:54:27.104Z,60.5
2022-10-19T16:04:27.362Z,61
2022-10-19T16:14:27.736Z,61.5
2022-10-19T16:24:27.257Z,61.5
2022-10-19T16:34:27.339Z,62.5
2022-10-19T16:44:27.222Z,63.5
2022-10-19T16:54:27.291Z,64.5
2022-10-19T17:04:27.262Z,65
2022-10-19T17:14:27.328Z,65.5
2022-10-19T17:24:27.318Z,66
2022-10-19T17:34:27.418Z,66.5
2022-10-19T17:44:27.316Z,60
2022-10-19T17:54:27.437Z,57
2022-10-19T18:04:27.322Z,59.5
2022-10-19T18:14:27.422Z,61.5
2022-10-19T18:24:27.430Z,63
2022-10-19T18:34:27.433Z,64
2022-10-19T18:44:28.734Z,65
2022-10-19T18:54:27.347Z,66
2022-10-19T19:04:27.740Z,66.5
2022-10-19T19:14:27.340Z,67
2022-10-19T19:24:27.517Z,67.5
2022-10-19T19:34:27.361Z,67.5
2022-10-19T19:44:27.480Z,68
2022-10-19T19:54:27.355Z,68
2022-10-19T20:04:27.529Z,68
2022-10-19T20:14:27.616Z,68
2022-10-19T20:24:27.388Z,68
2022-10-19T20:34:27.522Z,68.5
2022-10-19T20:44:27.403Z,68.5
2022-10-19T20:54:27.478Z,68.5
2022-10-19T21:04:27.460Z,68.5
2022-10-19T21:14:28.327Z,68.5
2022-10-19T21:24:27.604Z,68.5
2022-10-19T21:34:27.493Z,68.5
2022-10-19T21:44:28.604Z,69
2022-10-19T21:54:27.460Z,69
2022-10-19T22:04:27.613Z,69
2022-10-19T22:14:27.457Z,69
2022-10-19T22:24:27.720Z,69
2022-10-19T22:34:27.656Z,69
2022-10-19T22:44:27.575Z,69
2022-10-19T22:54:27.678Z,69
2022-10-19T23:04:27.600Z,69
2022-10-19T23:14:27.677Z,69
2022-10-19T23:24:27.591Z,69
2022-10-19T23:34:27.681Z,69
2022-10-19T23:44:27.594Z,69
2022-10-19T23:54:27.677Z,69
